createdAt,value
2023-03-31T00:00:29.319Z,97296.63
2023-03-31T00:02:59.826Z,97293.16
2023-03-31T00:05:27.997Z,97299.16
2023-03-31T00:08:02.075Z,97302.09
2023-03-31T00:10:35.729Z,97307.38
2023-03-31T00:13:04.812Z,97306.09
2023-03-31T00:15:33.894Z,97300.44
2023-03-31T00:18:02.661Z,97295.16
2023-03-31T00:20:33.899Z,97296.63
2023-03-31T00:23:02.513Z,97304.09
2023-03-31T00:25:30.156Z,97293.16
2023-03-31T00:27:58.389Z,97277.50
2023-03-31T00:30:26.332Z,97278.75
2023-03-31T00:32:56.142Z,97278.75
2023-03-31T00:35:23.534Z,97269.50
2023-03-31T00:37:52.276Z,97265.84
2023-03-31T00:40:20.596Z,97262.38
2023-03-31T00:42:48.576Z,97262.72
2023-03-31T00:45:17.053Z,97251.78
2023-03-31T00:47:47.643Z,97243.78
2023-03-31T00:50:18.789Z,97251.25
2023-03-31T00:52:48.721Z,97234.47
2023-03-31T00:55:19.767Z,97236.47
2023-03-31T00:57:49.506Z,97221.31
2023-03-31T01:00:18.589Z,97217.47
2023-03-31T01:02:53.866Z,97212.00
2023-03-31T01:05:23.498Z,97219.78
2023-03-31T01:07:52.117Z,97210.56
2023-03-31T01:10:20.714Z,97204.53
2023-03-31T01:12:51.759Z,97201.09
2023-03-31T01:15:19.756Z,97200.34
2023-03-31T01:17:50.227Z,97190.34
2023-03-31T01:20:42.606Z,97191.25
2023-03-31T01:23:36.874Z,97191.25
2023-03-31T01:26:38.935Z,97190.75
2023-03-31T01:29:28.977Z,97180.72
2023-03-31T01:32:13.478Z,97178.53
2023-03-31T01:34:55.837Z,97177.09
2023-03-31T01:38:03.672Z,97170.34
2023-03-31T01:40:53.190Z,97162.88
2023-03-31T01:43:37.612Z,97157.41
2023-03-31T01:46:28.810Z,97162.16
2023-03-31T01:49:19.381Z,97155.41
2023-03-31T01:52:00.048Z,97156.13
2023-03-31T01:54:39.372Z,97145.75
2023-03-31T01:57:12.329Z,97147.41
2023-03-31T02:00:11.482Z,97141.94
2023-03-31T02:02:40.910Z,97137.75
2023-03-31T02:05:12.171Z,97133.00
2023-03-31T02:07:52.891Z,97124.81
2023-03-31T02:10:21.380Z,97137.75
2023-03-31T02:12:49.497Z,97129.91
2023-03-31T02:15:24.388Z,97128.75
2023-03-31T02:17:54.889Z,97130.59
2023-03-31T02:20:27.614Z,97132.59
2023-03-31T02:22:56.239Z,97112.50
2023-03-31T02:25:29.074Z,97123.44
2023-03-31T02:28:00.194Z,97109.06
2023-03-31T02:30:33.170Z,97105.59
2023-03-31T02:33:00.299Z,97106.31
2023-03-31T02:35:27.398Z,97102.13
2023-03-31T02:37:54.437Z,97092.66
2023-03-31T02:40:22.633Z,97095.78
2023-03-31T02:42:49.923Z,97095.97
2023-03-31T02:45:49.734Z,97087.97
2023-03-31T02:48:17.354Z,97083.44
2023-03-31T02:51:01.852Z,97089.63
2023-03-31T02:53:47.401Z,97079.09
2023-03-31T02:56:36.947Z,97078.75
2023-03-31T02:59:30.674Z,97071.78
2023-03-31T03:02:22.178Z,97065.25
2023-03-31T03:05:08.104Z,97059.44
2023-03-31T03:07:38.324Z,97064.19
2023-03-31T03:10:20.683Z,97048.91
2023-03-31T03:12:58.813Z,97050.53
2023-03-31T03:15:47.808Z,97056.56
2023-03-31T03:18:15.373Z,97047.06
2023-03-31T03:20:43.333Z,97050.00
2023-03-31T03:23:10.721Z,97039.44
2023-03-31T03:25:38.906Z,97041.63
2023-03-31T03:28:07.159Z,97037.44
2023-03-31T03:30:34.188Z,97032.34
2023-03-31T03:33:01.271Z,97025.59
2023-03-31T03:35:28.389Z,97029.81
2023-03-31T03:37:55.528Z,97023.81
2023-03-31T03:40:22.579Z,97019.06
2023-03-31T03:42:49.647Z,97017.22
2023-03-31T03:45:16.747Z,97010.13
2023-03-31T03:47:43.864Z,97010.28
2023-03-31T03:50:13.451Z,97006.09
2023-03-31T03:52:41.760Z,97004.66
2023-03-31T03:55:09.114Z,96995.91
2023-03-31T03:57:36.550Z,96999.53
2023-03-31T04:00:10.159Z,96991.88
2023-03-31T04:02:37.286Z,96998.25
2023-03-31T04:05:05.136Z,96996.06
2023-03-31T04:07:32.451Z,96987.16
2023-03-31T04:09:59.557Z,96982.63
2023-03-31T04:12:26.590Z,96985.34
2023-03-31T04:14:53.992Z,96980.22
2023-03-31T04:17:33.060Z,96979.66
2023-03-31T04:20:07.649Z,96971.69
2023-03-31T04:22:35.537Z,96968.19
2023-03-31T04:25:04.567Z,96961.81
2023-03-31T04:27:33.743Z,96966.38
2023-03-31T04:30:00.846Z,96973.47
2023-03-31T04:32:28.449Z,96965.44
2023-03-31T04:35:03.358Z,96959.25
2023-03-31T04:37:34.730Z,96960.53
2023-03-31T04:40:11.190Z,96969.28
2023-03-31T04:42:38.388Z,96961.97
2023-03-31T04:45:05.871Z,96946.84
2023-03-31T04:47:34.693Z,96940.84
2023-03-31T04:50:01.867Z,96940.25
2023-03-31T04:52:29.086Z,96930.03
2023-03-31T04:54:56.121Z,96922.56
2023-03-31T04:57:23.205Z,96930.94
2023-03-31T04:59:50.300Z,96917.09
2023-03-31T05:02:25.236Z,96918.75
2023-03-31T05:04:54.285Z,96917.28
2023-03-31T05:07:21.344Z,96913.09
2023-03-31T05:09:48.566Z,96905.44
2023-03-31T05:12:15.990Z,96910.72
2023-03-31T05:14:43.032Z,96910.72
2023-03-31T05:17:10.425Z,96893.63
2023-03-31T05:19:37.603Z,96892.34
2023-03-31T05:22:04.644Z,96886.16
2023-03-31T05:24:31.965Z,96876.28
2023-03-31T05:26:59.055Z,96864.44
2023-03-31T05:29:26.763Z,96862.81
2023-03-31T05:31:54.513Z,96849.16
2023-03-31T05:34:21.555Z,96838.22
2023-03-31T05:36:50.545Z,96824.38
2023-03-31T05:39:19.286Z,96826.56
2023-03-31T05:41:46.318Z,96825.31
2023-03-31T05:44:13.880Z,96817.84
2023-03-31T05:46:42.398Z,96814.72
2023-03-31T05:49:11.291Z,96819.84
2023-03-31T05:51:38.401Z,96800.91
2023-03-31T05:54:06.298Z,96797.06
2023-03-31T05:56:33.712Z,96803.63
2023-03-31T05:59:01.524Z,96796.72
2023-03-31T06:01:29.968Z,96793.25
2023-03-31T06:03:57.478Z,96789.03
2023-03-31T06:06:25.352Z,96790.88
2023-03-31T06:08:52.424Z,96783.94
2023-03-31T06:11:21.726Z,96783.22
2023-03-31T06:13:49.212Z,96782.28
2023-03-31T06:16:19.544Z,96775.91
2023-03-31T06:18:46.759Z,96781.19
2023-03-31T06:21:16.905Z,96783.34
2023-03-31T06:23:45.249Z,96781.16
2023-03-31T06:26:14.802Z,96784.63
2023-03-31T06:28:42.110Z,96776.59
2023-03-31T06:31:14.870Z,96779.84
2023-03-31T06:33:43.096Z,96785.50
2023-03-31T06:36:11.163Z,96780.19
2023-03-31T06:38:38.488Z,96778.00
2023-03-31T06:41:06.511Z,96774.34
2023-03-31T06:43:33.787Z,96772.69
2023-03-31T06:46:01.376Z,96767.03
2023-03-31T06:48:28.780Z,96762.97
2023-03-31T06:50:59.170Z,96759.09
2023-03-31T06:53:26.490Z,96756.31
2023-03-31T06:55:53.574Z,96753.69
2023-03-31T06:58:20.850Z,96760.22
2023-03-31T07:00:48.054Z,96757.25
2023-03-31T07:03:18.767Z,96740.94
2023-03-31T07:05:50.258Z,96741.81
2023-03-31T07:08:17.740Z,96733.78
2023-03-31T07:10:48.564Z,96731.53
2023-03-31T07:13:18.630Z,96725.28
2023-03-31T07:15:48.199Z,96721.56
2023-03-31T07:18:16.574Z,96720.78
2023-03-31T07:20:43.957Z,96715.81
2023-03-31T07:23:11.378Z,96701.38
2023-03-31T07:25:38.466Z,96702.75
2023-03-31T07:28:06.497Z,96707.44
2023-03-31T07:30:33.604Z,96709.22
2023-03-31T07:33:01.904Z,96720.34
2023-03-31T07:35:31.440Z,96717.78
2023-03-31T07:37:59.031Z,96717.28
2023-03-31T07:40:28.235Z,96703.81
2023-03-31T07:42:55.635Z,96716.16
2023-03-31T07:45:25.464Z,96711.47
2023-03-31T07:47:52.769Z,96710.28
2023-03-31T07:50:21.104Z,96709.22
2023-03-31T07:52:48.309Z,96709.28
2023-03-31T07:55:16.625Z,96715.88
2023-03-31T07:57:46.031Z,96714.09
2023-03-31T08:00:14.772Z,96720.19
2023-03-31T08:02:45.384Z,96719.00
2023-03-31T08:05:14.432Z,96722.84
2023-03-31T08:07:43.231Z,96715.25
2023-03-31T08:10:13.739Z,96724.25
2023-03-31T08:12:40.934Z,96715.00
2023-03-31T08:15:08.548Z,96701.69
2023-03-31T08:17:36.148Z,96700.78
2023-03-31T08:20:08.014Z,96696.59
2023-03-31T08:22:39.167Z,96697.31
2023-03-31T08:25:08.044Z,96691.28
2023-03-31T08:27:36.488Z,96692.91
2023-03-31T08:30:05.162Z,96686.91
2023-03-31T08:32:32.971Z,96680.50
2023-03-31T08:35:00.283Z,96679.06
2023-03-31T08:37:31.505Z,96664.81
2023-03-31T08:39:58.685Z,96673.44
2023-03-31T08:42:36.979Z,96656.84
2023-03-31T08:45:07.231Z,96658.63
2023-03-31T08:47:36.551Z,96647.66
2023-03-31T08:50:10.271Z,96648.41
2023-03-31T08:52:47.979Z,96638.56
2023-03-31T08:55:22.624Z,96639.13
2023-03-31T08:57:58.450Z,96636.41
2023-03-31T09:00:25.526Z,96621.44
2023-03-31T09:02:53.099Z,96621.75
2023-03-31T09:05:27.759Z,96609.72
2023-03-31T09:08:02.494Z,96600.94
2023-03-31T09:10:39.942Z,96606.75
2023-03-31T09:13:26.470Z,96610.94
2023-03-31T09:16:00.310Z,96604.22
2023-03-31T09:18:35.843Z,96608.25
2023-03-31T09:21:27.723Z,96606.63
2023-03-31T09:24:12.605Z,96603.56
2023-03-31T09:26:46.372Z,96610.13
2023-03-31T09:29:20.002Z,96600.88
2023-03-31T09:31:47.299Z,96576.25
2023-03-31T09:34:17.793Z,96577.00
2023-03-31T09:36:44.932Z,96585.59
2023-03-31T09:39:13.826Z,96591.59
2023-03-31T09:41:44.829Z,96591.66
2023-03-31T09:44:37.271Z,96586.25
2023-03-31T09:47:10.922Z,96573.88
2023-03-31T09:49:39.101Z,96579.53
2023-03-31T09:52:14.941Z,96574.63
2023-03-31T09:54:48.351Z,96566.03
2023-03-31T09:57:35.112Z,96566.34
2023-03-31T10:00:08.334Z,96559.25
2023-03-31T10:02:37.881Z,96553.06
2023-03-31T10:05:06.793Z,96542.13
2023-03-31T10:07:34.415Z,96543.00
2023-03-31T10:10:02.237Z,96531.88
2023-03-31T10:12:30.019Z,96534.59
2023-03-31T10:15:26.363Z,96533.72
2023-03-31T10:17:55.297Z,96529.53
2023-03-31T10:20:33.464Z,96526.59
2023-03-31T10:23:05.682Z,96518.63
2023-03-31T10:25:33.596Z,96520.47
2023-03-31T10:28:02.145Z,96515.38
2023-03-31T10:30:36.420Z,96514.53
2023-03-31T10:33:22.191Z,96510.94
2023-03-31T10:35:54.897Z,96493.31
2023-03-31T10:38:27.319Z,96498.44
2023-03-31T10:40:59.061Z,96494.25
2023-03-31T10:43:43.367Z,96494.28
2023-03-31T10:46:12.377Z,96483.75
2023-03-31T10:48:41.525Z,96467.00
2023-03-31T10:51:21.496Z,96453.94
2023-03-31T10:53:50.814Z,96456.13
2023-03-31T10:56:35.572Z,96459.47
2023-03-31T10:59:30.849Z,96461.13
2023-03-31T11:02:05.400Z,96451.31
2023-03-31T11:04:46.493Z,96451.31
2023-03-31T11:07:29.207Z,96443.50
2023-03-31T11:10:14.960Z,96440.25
2023-03-31T11:13:19.467Z,96446.44
2023-03-31T11:15:49.175Z,96434.09
2023-03-31T11:18:37.624Z,96428.81
2023-03-31T11:21:26.560Z,96427.75
2023-03-31T11:24:14.004Z,96419.75
2023-03-31T11:26:53.110Z,96410.84
2023-03-31T11:29:57.829Z,96391.75
2023-03-31T11:32:31.586Z,96385.00
2023-03-31T11:35:30.008Z,96389.19
2023-03-31T11:38:16.004Z,96380.44
2023-03-31T11:40:46.159Z,96381.91
2023-03-31T11:43:24.954Z,96376.63
2023-03-31T11:46:06.022Z,96368.97
2023-03-31T11:48:36.288Z,96364.78
2023-03-31T11:51:05.305Z,96356.59
2023-03-31T11:53:34.945Z,96350.75
2023-03-31T11:56:02.615Z,96349.09
2023-03-31T11:58:38.372Z,96352.34
2023-03-31T12:01:20.166Z,96343.06
2023-03-31T12:03:58.997Z,96349.25
2023-03-31T12:06:30.784Z,96346.13
2023-03-31T12:09:05.919Z,96337.56
2023-03-31T12:11:48.803Z,96340.06
2023-03-31T12:14:35.223Z,96332.03
2023-03-31T12:17:09.159Z,96326.91
2023-03-31T12:19:52.541Z,96314.72
2023-03-31T12:22:26.921Z,96321.78
2023-03-31T12:24:54.416Z,96315.94
2023-03-31T12:27:32.758Z,96311.53
2023-03-31T12:30:29.508Z,96308.22
2023-03-31T12:33:17.900Z,96300.44
2023-03-31T12:36:03.285Z,96304.75
2023-03-31T12:39:06.006Z,96308.66
2023-03-31T12:41:42.169Z,96316.06
2023-03-31T12:44:31.574Z,96309.25
2023-03-31T12:47:33.681Z,96309.19
2023-03-31T12:50:14.731Z,96306.53
2023-03-31T12:53:05.727Z,96290.75
2023-03-31T12:55:51.857Z,96299.78
2023-03-31T12:58:25.263Z,96294.41
2023-03-31T13:01:11.967Z,96294.81
2023-03-31T13:04:11.241Z,96293.97
2023-03-31T13:06:38.158Z,96289.00
2023-03-31T13:09:11.975Z,96295.03
2023-03-31T13:11:41.257Z,96283.38
2023-03-31T13:14:21.084Z,96279.03
2023-03-31T13:16:49.530Z,96285.06
2023-03-31T13:19:49.723Z,96281.06
2023-03-31T13:22:37.208Z,96278.19
2023-03-31T13:25:32.310Z,96280.72
2023-03-31T13:28:11.239Z,96282.41
2023-03-31T13:30:44.047Z,96292.56
2023-03-31T13:33:13.186Z,96289.00
2023-03-31T13:35:42.813Z,96282.53
2023-03-31T13:38:20.283Z,96286.63
2023-03-31T13:40:56.016Z,96272.78
2023-03-31T13:43:33.373Z,96274.13
2023-03-31T13:46:25.354Z,96273.44
2023-03-31T13:48:57.953Z,96259.16
2023-03-31T13:51:36.668Z,96263.34
2023-03-31T13:54:19.070Z,96256.16
2023-03-31T13:57:19.733Z,96252.59
2023-03-31T14:00:11.623Z,96251.72
2023-03-31T14:03:05.880Z,96249.25
2023-03-31T14:06:02.738Z,96246.81
2023-03-31T14:08:39.101Z,96234.38
2023-03-31T14:11:16.378Z,96240.31
2023-03-31T14:13:43.507Z,96249.41
2023-03-31T14:16:11.298Z,96241.59
2023-03-31T14:18:46.231Z,96234.50
2023-03-31T14:21:46.998Z,96215.44
2023-03-31T14:24:40.992Z,96221.78
2023-03-31T14:27:25.662Z,96219.06
2023-03-31T14:30:01.194Z,96228.16
2023-03-31T14:32:40.462Z,96223.69
2023-03-31T14:35:26.581Z,96226.72
2023-03-31T14:37:54.739Z,96230.94
2023-03-31T14:40:22.250Z,96229.78
2023-03-31T14:42:52.258Z,96228.63
2023-03-31T14:45:25.226Z,96237.88
2023-03-31T14:48:17.450Z,96230.06
2023-03-31T14:50:46.376Z,96238.88
2023-03-31T14:53:15.833Z,96234.25
2023-03-31T14:58:24.253Z,96218.81
2023-03-31T15:00:52.363Z,96221.84
2023-03-31T15:03:19.753Z,96234.25
2023-03-31T15:05:50.372Z,96239.44
2023-03-31T15:08:20.715Z,96228.06
2023-03-31T15:10:58.932Z,96237.44
2023-03-31T15:13:35.886Z,96239.59
2023-03-31T15:16:27.195Z,96234.22
2023-03-31T15:18:54.752Z,96236.69
2023-03-31T15:21:24.233Z,96234.81
2023-03-31T15:23:53.094Z,96241.13
2023-03-31T15:26:28.028Z,96238.06
2023-03-31T15:29:07.578Z,96232.56
2023-03-31T15:31:35.382Z,96226.38
2023-03-31T15:34:14.018Z,96227.88
2023-03-31T15:36:41.314Z,96232.47
2023-03-31T15:39:08.689Z,96240.28
2023-03-31T15:41:37.164Z,96240.69
2023-03-31T15:44:29.766Z,96235.66
2023-03-31T15:47:02.025Z,96224.81
2023-03-31T15:49:29.520Z,96226.38
2023-03-31T15:51:57.464Z,96224.94
2023-03-31T15:54:36.903Z,96224.94
2023-03-31T15:57:05.972Z,96219.91
2023-03-31T15:59:57.015Z,96213.38
2023-03-31T16:02:27.429Z,96210.91
2023-03-31T16:04:57.249Z,96215.41
2023-03-31T16:07:27.287Z,96211.47
2023-03-31T16:10:03.072Z,96214.63
2023-03-31T16:12:36.951Z,96215.06
2023-03-31T16:15:16.706Z,96224.59
2023-03-31T16:17:54.552Z,96230.78
2023-03-31T16:20:24.744Z,96220.41
2023-03-31T16:22:54.260Z,96221.25
2023-03-31T16:25:24.382Z,96222.84
2023-03-31T16:27:55.513Z,96219.69
2023-03-31T16:30:40.338Z,96217.81
2023-03-31T16:33:13.340Z,96214.38
2023-03-31T16:35:42.805Z,96219.13
2023-03-31T16:38:11.767Z,96214.38
2023-03-31T16:40:41.043Z,96214.94
2023-03-31T16:43:20.038Z,96217.09
2023-03-31T16:45:54.242Z,96217.97
2023-03-31T16:48:23.253Z,96216.38
2023-03-31T16:50:54.177Z,96229.94
2023-03-31T16:53:23.836Z,96227.06
2023-03-31T16:55:51.203Z,96227.59
2023-03-31T16:58:18.773Z,96231.06
2023-03-31T17:00:46.300Z,96230.94
2023-03-31T17:03:14.908Z,96239.16
2023-03-31T17:05:47.653Z,96231.50
2023-03-31T17:08:15.510Z,96231.94
2023-03-31T17:10:53.085Z,96230.31
2023-03-31T17:13:20.559Z,96224.56
2023-03-31T17:15:49.466Z,96228.59
2023-03-31T17:18:17.445Z,96227.97
2023-03-31T17:20:44.600Z,96222.34
2023-03-31T17:23:12.125Z,96237.28
2023-03-31T17:25:39.371Z,96238.84
2023-03-31T17:28:06.516Z,96237.09
2023-03-31T17:30:35.656Z,96238.19
2023-03-31T17:33:02.839Z,96243.34
2023-03-31T17:35:30.690Z,96242.31
2023-03-31T17:37:58.595Z,96245.47
2023-03-31T17:40:26.896Z,96243.56
2023-03-31T17:42:55.182Z,96245.38
2023-03-31T17:45:22.229Z,96244.38
2023-03-31T17:47:49.353Z,96252.97
2023-03-31T17:50:16.516Z,96251.34
2023-03-31T17:52:43.649Z,96257.97
2023-03-31T17:55:11.508Z,96256.34
2023-03-31T17:57:40.659Z,96268.09
2023-03-31T18:00:09.802Z,96271.81
2023-03-31T18:02:38.253Z,96275.09
2023-03-31T18:05:09.124Z,96276.56
2023-03-31T18:07:36.765Z,96283.13
2023-03-31T18:10:07.198Z,96278.38
2023-03-31T18:12:36.382Z,96283.13
2023-03-31T18:15:06.726Z,96287.88
2023-03-31T18:17:35.440Z,96285.28
2023-03-31T18:20:03.924Z,96291.50
2023-03-31T18:22:31.229Z,96292.06
2023-03-31T18:24:59.284Z,96287.88
2023-03-31T18:27:26.599Z,96291.19
2023-03-31T18:29:53.657Z,96289.16
2023-03-31T18:32:21.153Z,96289.75
2023-03-31T18:34:48.633Z,96291.59
2023-03-31T18:37:17.067Z,96293.44
2023-03-31T18:39:44.158Z,96296.41
2023-03-31T18:42:12.202Z,96293.84
2023-03-31T18:44:39.858Z,96300.59
2023-03-31T18:47:07.165Z,96297.69
2023-03-31T18:49:34.337Z,96300.09
2023-03-31T18:52:03.981Z,96306.88
2023-03-31T18:54:31.131Z,96310.88
2023-03-31T18:56:58.308Z,96326.06
2023-03-31T18:59:25.498Z,96314.41
2023-03-31T19:01:52.766Z,96327.91
2023-03-31T19:04:19.852Z,96322.09
2023-03-31T19:06:46.985Z,96328.72
2023-03-31T19:09:14.138Z,96322.59
2023-03-31T19:11:41.685Z,96325.53
2023-03-31T19:14:09.103Z,96326.31
2023-03-31T19:16:41.871Z,96323.78
2023-03-31T19:19:09.103Z,96329.25
2023-03-31T19:21:38.256Z,96337.28
2023-03-31T19:24:05.926Z,96346.78
2023-03-31T19:26:33.009Z,96330.06
2023-03-31T19:29:00.289Z,96334.81
2023-03-31T19:31:27.948Z,96336.97
2023-03-31T19:33:55.069Z,96336.97
2023-03-31T19:36:22.177Z,96336.47
2023-03-31T19:38:49.264Z,96340.66
2023-03-31T19:41:18.181Z,96338.84
2023-03-31T19:43:47.565Z,96333.22
2023-03-31T19:46:14.850Z,96337.78
2023-03-31T19:48:42.105Z,96333.06
2023-03-31T19:51:10.754Z,96330.16
2023-03-31T19:53:39.394Z,96326.00
2023-03-31T19:56:11.852Z,96322.91
2023-03-31T19:58:39.418Z,96322.03
2023-03-31T20:01:18.404Z,96324.41
2023-03-31T20:03:46.113Z,96316.03
2023-03-31T20:06:14.515Z,96319.34
2023-03-31T20:08:42.532Z,96309.69
2023-03-31T20:11:13.228Z,96324.78
2023-03-31T20:13:42.073Z,96314.97
2023-03-31T20:16:11.877Z,96314.63
2023-03-31T20:18:43.600Z,96309.19
2023-03-31T20:21:15.617Z,96313.34
2023-03-31T20:23:43.833Z,96315.38
2023-03-31T20:26:13.539Z,96313.19
2023-03-31T20:28:40.991Z,96311.41
2023-03-31T20:31:15.653Z,96312.34
2023-03-31T20:33:43.267Z,96319.06
2023-03-31T20:36:13.434Z,96316.00
2023-03-31T20:38:42.819Z,96318.94
2023-03-31T20:41:10.906Z,96322.06
2023-03-31T20:43:39.324Z,96328.06
2023-03-31T20:46:08.513Z,96324.63
2023-03-31T20:48:38.009Z,96329.53
2023-03-31T20:51:07.169Z,96330.41
2023-03-31T20:53:42.309Z,96331.84
2023-03-31T20:56:10.823Z,96327.84
2023-03-31T20:58:37.922Z,96330.41
2023-03-31T21:01:06.553Z,96334.41
2023-03-31T21:03:33.897Z,96330.81
2023-03-31T21:06:02.910Z,96338.28
2023-03-31T21:08:29.987Z,96336.78
2023-03-31T21:10:59.380Z,96334.06
2023-03-31T21:13:27.327Z,96331.91
2023-03-31T21:15:55.848Z,96337.91
2023-03-31T21:18:23.291Z,96330.84
2023-03-31T21:20:56.078Z,96343.94
2023-03-31T21:23:24.256Z,96334.16
2023-03-31T21:25:56.784Z,96340.34
2023-03-31T21:28:26.228Z,96339.63
2023-03-31T21:30:55.952Z,96329.09
2023-03-31T21:33:24.312Z,96337.63
2023-03-31T21:35:52.006Z,96328.00
2023-03-31T21:38:19.886Z,96318.91
2023-03-31T21:40:48.286Z,96321.81
2023-03-31T21:43:15.861Z,96321.44
2023-03-31T21:45:43.161Z,96323.47
2023-03-31T21:48:11.691Z,96316.00
2023-03-31T21:50:40.041Z,96320.38
2023-03-31T21:53:08.317Z,96323.66
2023-03-31T21:55:40.321Z,96328.75
2023-03-31T21:58:07.423Z,96321.16
2023-03-31T22:00:36.024Z,96324.78
2023-03-31T22:03:22.405Z,96320.25
2023-03-31T22:05:50.154Z,96319.00
2023-03-31T22:08:24.595Z,96319.38
2023-03-31T22:10:52.211Z,96324.09
2023-03-31T22:13:21.079Z,96325.94
2023-03-31T22:15:48.645Z,96326.66
2023-03-31T22:18:17.188Z,96328.09
2023-03-31T22:20:45.284Z,96316.63
2023-03-31T22:23:12.796Z,96315.75
2023-03-31T22:25:39.859Z,96319.03
2023-03-31T22:28:07.667Z,96310.84
2023-03-31T22:30:35.441Z,96327.00
2023-03-31T22:33:02.630Z,96313.75
2023-03-31T22:35:29.736Z,96316.47
2023-03-31T22:37:56.905Z,96324.50
2023-03-31T22:40:24.053Z,96321.94
2023-03-31T22:42:51.088Z,96325.94
2023-03-31T22:45:18.715Z,96328.09
2023-03-31T22:47:46.045Z,96335.00
2023-03-31T22:50:13.137Z,96328.28
2023-03-31T22:52:40.585Z,96332.44
2023-03-31T22:55:07.726Z,96335.38
2023-03-31T22:57:34.940Z,96332.09
2023-03-31T23:00:03.488Z,96336.81
2023-03-31T23:02:30.709Z,96336.81
2023-03-31T23:04:57.757Z,96338.28
2023-03-31T23:07:24.814Z,96337.00
2023-03-31T23:09:51.874Z,96335.38
2023-03-31T23:12:19.234Z,96337.56
2023-03-31T23:14:46.654Z,96332.81
2023-03-31T23:17:13.654Z,96342.28
2023-03-31T23:19:40.706Z,96335.38
2023-03-31T23:22:07.781Z,96342.44
2023-03-31T23:24:34.855Z,96340.09
2023-03-31T23:27:01.973Z,96343.34
2023-03-31T23:29:30.712Z,96329.56
2023-03-31T23:31:57.854Z,96338.28
2023-03-31T23:34:25.408Z,96332.13
2023-03-31T23:36:52.845Z,96333.38
2023-03-31T23:39:21.387Z,96331.00
2023-03-31T23:41:48.707Z,96339.91
2023-03-31T23:44:16.490Z,96330.66
2023-03-31T23:46:44.359Z,96339.00
2023-03-31T23:49:12.026Z,96342.47
2023-03-31T23:51:39.147Z,96340.28
2023-03-31T23:54:06.221Z,96340.84
2023-03-31T23:56:34.330Z,96341.38
2023-03-31T23:59:01.538Z,96340.84
